Bei Facebook empfehlenBei Twitter postenGoogle plusPinterest

Das Wetter im Erzgebirge am 08.04.2017

Wetter und Klima am 08.04.2017 Holzhau im Erzgebirge (630m ü.NN)
Letzte gemessene Temperatur und Uhrzeit der Messung23:45:00 Uhr5.90 °C
Temperatur (Maximum / Höchstwert) und Uhrzeit der Messung14:00:00 Uhr11.60 °C
Temperatur (Minimum / Tiefstwert) und Uhrzeit der Messung08:45:005.50 °C
Errechneter Absolutwert der Temperaturschwankungen zwischen Tmin und Tmax des Tages6.10 K
Errechnete Tagesmitteltemperatur7.67604 °C
Gesamt - Niederschlag des Tages (in flüssiger Form)1.03 Liter / m²
Luftdruck (Maximum / Höchstwert) und Zeitpunkt der Messung21:45:00 Uhr1021.40 hPa
Luftdruck (Minimum / Tiefstwert) und Zeitpunkt der Messung02:00:00 Uhr1017.50 hPa
Errechneter Absolutwert der Luftdruckschwankungen des Tages3.90 hPa
Höchste gemessene Windgeschwindigkeit und Uhrzeit der Messung01:15:00 Uhr11.16 km/h
Errechnete Windhäufigkeit in Relation zu den Messwerten des Tages41.66667 %
Niedrigste Windkühle (Windchill) und Zeitpunkt der Messung01:15:00 Uhr3.90 °C
Taupunkt (Maximum / Höchstwert) und Uhrzeit der Messung14:00:00 Uhr8.30 °C
Taupunkt (Minimum / Tiefstwert) und Uhrzeit der Messung22:15:004.50 °C
Anzahl der automatisch eingelesenen Messwerte 96

Detaillierte Wetter- und Klima- Messwerte für den 08.04.2017 in Holzhau im Erzgebirge (630m ü.NN)
ZeitTemperaturLuftdruckRel. LuftfeuchteWindWindrichtungWindchillTaupunktNiederschlag l/m²
23:45:005.90 °C1020.90 hPa93.00 %4.90 °C1.03
23:30:005.90 °C1021.20 hPa93.00 %4.90 °C1.03
23:15:005.90 °C1021.20 hPa93.00 %4.90 °C1.03
23:00:005.90 °C1021.10 hPa93.00 %4.90 °C1.03
22:45:006.00 °C1021.20 hPa92.00 %1.80 km/hOSO6.00 °C4.80 °C1.03
22:30:006.00 °C1021.10 hPa92.00 %4.80 °C1.03
22:15:005.90 °C1021.30 hPa91.00 %4.50 °C1.03
22:00:006.10 °C1021.30 hPa91.00 %4.70 °C1.03
21:45:006.40 °C1021.40 hPa91.00 %5.00 °C1.03
21:30:006.60 °C1021.10 hPa90.00 %5.10 °C1.03
21:15:006.90 °C1021.10 hPa90.00 %5.40 °C1.03
21:00:006.90 °C1021.30 hPa90.00 %5.40 °C1.03
20:45:007.20 °C1021.10 hPa89.00 %5.50 °C1.03
20:30:007.50 °C1020.70 hPa88.00 %5.60 °C1.03
20:15:007.80 °C1020.60 hPa88.00 %5.90 °C1.03
20:00:008.10 °C1020.50 hPa87.00 %6.10 °C1.03
19:45:008.40 °C1020.40 hPa86.00 %6.20 °C1.03
19:30:008.80 °C1020.40 hPa87.00 %6.80 °C1.03
19:15:009.20 °C1020.50 hPa85.00 %6.80 °C1.03
19:00:009.70 °C1020.50 hPa83.00 %7.00 °C1.03
18:45:009.90 °C1020.50 hPa82.00 %7.00 °C1.03
18:30:0010.10 °C1020.50 hPa82.00 %7.20 °C1.03
18:15:0010.20 °C1020.50 hPa81.00 %7.10 °C1.03
18:00:0010.20 °C1020.50 hPa82.00 %7.30 °C1.03
17:45:0010.10 °C1020.60 hPa82.00 %7.20 °C1.03
17:30:0010.10 °C1020.60 hPa81.00 %7.00 °C1.03
17:15:0010.10 °C1020.50 hPa81.00 %7.00 °C1.03
17:00:0010.30 °C1020.40 hPa80.00 %7.00 °C1.03
16:45:0010.20 °C1020.50 hPa80.00 %6.90 °C1.03
16:30:0010.50 °C1020.40 hPa79.00 %7.00 °C1.03
16:15:0011.00 °C1020.40 hPa78.00 %7.30 °C1.03
16:00:0010.90 °C1020.50 hPa79.00 %7.40 °C1.03
15:45:0010.90 °C1020.50 hPa78.00 %7.20 °C1.03
15:30:0011.20 °C1020.60 hPa78.00 %7.50 °C1.03
15:15:0011.20 °C1020.60 hPa79.00 %7.70 °C1.03
15:00:0011.30 °C1020.60 hPa78.00 %4.32 km/hW11.30 °C7.60 °C1.03
14:45:0010.90 °C1020.60 hPa79.00 %2.52 km/hWNW10.90 °C7.40 °C1.03
14:30:0011.30 °C1020.60 hPa78.00 %7.60 °C1.03
14:15:0011.50 °C1020.60 hPa78.00 %7.80 °C1.03
14:00:0011.60 °C1020.50 hPa80.00 %1.80 km/hW11.60 °C8.30 °C1.03
13:45:0011.10 °C1020.50 hPa81.00 %2.16 km/hWNW11.10 °C8.00 °C1.03
13:30:0010.60 °C1020.60 hPa82.00 %2.52 km/hNW10.60 °C7.70 °C1.03
13:15:0010.90 °C1020.60 hPa83.00 %0.72 km/hNW10.90 °C8.10 °C1.03
13:00:009.90 °C1020.50 hPa85.00 %9.36 km/hWNW8.60 °C7.50 °C1.03
12:45:009.40 °C1021.00 hPa86.00 %7.20 °C1.03
12:30:009.80 °C1021.00 hPa86.00 %7.60 °C1.03
12:15:009.50 °C1021.00 hPa88.00 %2.16 km/hW9.50 °C7.60 °C1.03
12:00:009.30 °C1021.00 hPa89.00 %7.60 °C1.03
11:45:008.90 °C1021.20 hPa90.00 %7.40 °C1.03
11:30:008.70 °C1021.00 hPa91.00 %2.52 km/hWNW8.70 °C7.30 °C1.03
11:15:008.50 °C1020.90 hPa92.00 %1.08 km/hW8.50 °C7.30 °C1.03
11:00:007.90 °C1020.70 hPa93.00 %6.80 °C1.03
10:45:007.60 °C1020.80 hPa94.00 %1.80 km/hW7.60 °C6.70 °C1.03
10:30:007.30 °C1020.70 hPa95.00 %3.24 km/hNNW7.30 °C6.60 °C1.03
10:15:007.10 °C1020.60 hPa96.00 %5.76 km/hNNW6.20 °C6.50 °C1.03
10:00:006.50 °C1020.40 hPa96.00 %5.90 °C1.03
09:45:006.10 °C1020.30 hPa96.00 %5.40 km/hSW5.20 °C5.50 °C1.03
09:30:006.10 °C1020.00 hPa96.00 %3.24 km/hWNW6.10 °C5.50 °C1.03
09:15:005.80 °C1020.10 hPa96.00 %5.20 °C1.03
09:00:005.60 °C1019.80 hPa96.00 %5.00 °C1.03
08:45:005.50 °C1019.80 hPa96.00 %4.90 °C1.03
08:30:005.50 °C1019.40 hPa96.00 %1.80 km/hWNW5.50 °C4.90 °C1.03
08:15:005.60 °C1019.60 hPa96.00 %2.52 km/hNW5.60 °C5.00 °C1.03
08:00:005.60 °C1019.40 hPa96.00 %5.00 °C1.03
07:45:005.50 °C1019.20 hPa96.00 %3.96 km/hWNW5.50 °C4.90 °C1.03
07:30:005.50 °C1019.00 hPa96.00 %3.96 km/hWNW5.50 °C4.90 °C1.03
07:15:005.50 °C1019.10 hPa96.00 %4.90 °C1.03
07:00:005.50 °C1018.80 hPa96.00 %3.60 km/hNW5.50 °C4.90 °C1.03
06:45:005.60 °C1018.70 hPa96.00 %5.00 °C1.03
06:30:005.70 °C1018.50 hPa96.00 %5.10 °C1.03
06:15:005.80 °C1018.40 hPa96.00 %0.72 km/hWNW5.80 °C5.20 °C1.03
06:00:005.90 °C1018.20 hPa96.00 %5.30 °C1.03
05:45:005.90 °C1018.00 hPa96.00 %1.44 km/hNW5.90 °C5.30 °C1.03
05:30:006.10 °C1018.00 hPa96.00 %5.50 °C1.03
05:15:006.10 °C1018.00 hPa96.00 %5.50 °C1.03
05:00:006.10 °C1018.00 hPa96.00 %8.28 km/hN4.40 °C5.50 °C1.03
04:45:006.10 °C1017.90 hPa96.00 %5.50 °C1.03
04:30:006.20 °C1018.00 hPa96.00 %3.96 km/hWNW6.20 °C5.60 °C1.03
04:15:006.20 °C1018.00 hPa96.00 %5.60 °C1.03
04:00:006.30 °C1017.90 hPa96.00 %7.92 km/hNW4.70 °C5.70 °C1.03
03:45:006.30 °C1017.80 hPa96.00 %2.16 km/hSW6.30 °C5.70 °C1.03
03:30:006.30 °C1017.80 hPa96.00 %5.70 °C1.03
03:15:006.30 °C1017.80 hPa96.00 %6.12 km/hWNW5.20 °C5.70 °C1.03
03:00:006.30 °C1017.60 hPa96.00 %10.44 km/hNW4.10 °C5.70 °C1.03
02:45:006.30 °C1017.70 hPa96.00 %2.52 km/hNNW6.30 °C5.70 °C1.03
02:30:006.30 °C1017.80 hPa96.00 %2.52 km/hNW6.30 °C5.70 °C1.03
02:15:006.30 °C1017.70 hPa96.00 %3.24 km/hW6.30 °C5.70 °C1.03
02:00:006.30 °C1017.50 hPa96.00 %8.64 km/hW4.50 °C5.70 °C1.03
01:45:006.30 °C1017.60 hPa96.00 %2.52 km/hW6.30 °C5.70 °C1.03
01:30:006.20 °C1017.50 hPa96.00 %6.12 km/hW5.10 °C5.60 °C1.03
01:15:006.20 °C1017.50 hPa96.00 %11.16 km/hNW3.90 °C5.60 °C1.03
01:00:006.10 °C1017.60 hPa96.00 %5.50 °C0.51
00:45:006.10 °C1017.70 hPa96.00 %1.44 km/hWNW6.10 °C5.50 °C0.51
00:30:006.10 °C1017.70 hPa96.00 %4.68 km/hW6.10 °C5.50 °C0.51
00:15:006.10 °C1017.60 hPa96.00 %1.44 km/hWNW6.10 °C5.50 °C 
00:00:006.00 °C1017.60 hPa96.00 %5.40 km/hWNW5.10 °C5.40 °C 

Permanenter Link zu dieser Seite: Wetter im Erzgebirge am 08.04.2017
Performance-Info: Die Erstellung der Seite / Statistik(en) / Tabelle(n) erforderte 5 Datenbankserver-Abfrage(n) und dauerte 123 Millisekunden. (Dieser Messwert ist von der Gesamt-Auslastung des Servers abhängig.)
Erzgebirge - Wetter | Erzgebirge - Wetter (Mobilgeräte) | Komplette Klimadatenbank